sensor_id;sensor_type;location;lat;lon;timestamp;pressure;altitude;pressure_sealevel;temperature;humidity
59435;BME280;45241;49.768;8.636;2023-02-15T00:01:22;101733.00;;;3.64;94.54
59435;BME280;45241;49.768;8.636;2023-02-15T00:03:48;101729.47;;;3.02;98.99
59435;BME280;45241;49.768;8.636;2023-02-15T00:06:14;101723.19;;;2.65;99.96
59435;BME280;45241;49.768;8.636;2023-02-15T00:08:39;101716.72;;;3.45;97.98
59435;BME280;45241;49.768;8.636;2023-02-15T00:11:13;101704.91;;;3.62;94.98
59435;BME280;45241;49.768;8.636;2023-02-15T00:13:39;101710.16;;;2.49;100.00
59435;BME280;45241;49.768;8.636;2023-02-15T00:16:11;101705.72;;;2.62;100.00
59435;BME280;45241;49.768;8.636;2023-02-15T00:18:40;101708.97;;;3.42;97.92
59435;BME280;45241;49.768;8.636;2023-02-15T00:21:08;101710.72;;;3.05;98.91
59435;BME280;45241;49.768;8.636;2023-02-15T00:23:34;101709.13;;;3.15;100.00
59435;BME280;45241;49.768;8.636;2023-02-15T00:26:09;101697.38;;;2.68;100.00
59435;BME280;45241;49.768;8.636;2023-02-15T00:28:34;101696.81;;;3.14;100.00
59435;BME280;45241;49.768;8.636;2023-02-15T00:31:10;101692.53;;;3.50;99.09
59435;BME280;45241;49.768;8.636;2023-02-15T00:33:37;101688.66;;;3.66;97.27
59435;BME280;45241;49.768;8.636;2023-02-15T00:36:03;101695.97;;;2.50;100.00
59435;BME280;45241;49.768;8.636;2023-02-15T00:38:29;101696.94;;;2.74;100.00
59435;BME280;45241;49.768;8.636;2023-02-15T00:40:57;101693.88;;;2.55;100.00
59435;BME280;45241;49.768;8.636;2023-02-15T00:43:22;101689.56;;;2.79;100.00
59435;BME280;45241;49.768;8.636;2023-02-15T00:45:48;101694.84;;;2.79;100.00
59435;BME280;45241;49.768;8.636;2023-02-15T00:48:13;101697.38;;;3.06;100.00
59435;BME280;45241;49.768;8.636;2023-02-15T00:50:39;101695.69;;;2.67;100.00
59435;BME280;45241;49.768;8.636;2023-02-15T00:53:04;101695.75;;;2.53;100.00
59435;BME280;45241;49.768;8.636;2023-02-15T00:55:29;101690.72;;;2.23;100.00
59435;BME280;45241;49.768;8.636;2023-02-15T00:57:55;101696.28;;;2.45;100.00
59435;BME280;45241;49.768;8.636;2023-02-15T01:00:20;101697.81;;;2.22;100.00
59435;BME280;45241;49.768;8.636;2023-02-15T01:02:45;101688.59;;;2.68;100.00
59435;BME280;45241;49.768;8.636;2023-02-15T01:05:11;101686.34;;;2.49;100.00
59435;BME280;45241;49.768;8.636;2023-02-15T01:07:36;101687.75;;;2.54;100.00
59435;BME280;45241;49.768;8.636;2023-02-15T01:10:02;101690.38;;;2.42;100.00
59435;BME280;45241;49.768;8.636;2023-02-15T01:12:27;101690.03;;;1.94;100.00
59435;BME280;45241;49.768;8.636;2023-02-15T01:14:52;101685.28;;;2.77;100.00
59435;BME280;45241;49.768;8.636;2023-02-15T01:17:17;101686.88;;;2.54;100.00
59435;BME280;45241;49.768;8.636;2023-02-15T01:19:43;101686.56;;;2.06;100.00
59435;BME280;45241;49.768;8.636;2023-02-15T01:22:08;101691.91;;;1.92;100.00
59435;BME280;45241;49.768;8.636;2023-02-15T01:24:34;101690.13;;;1.65;100.00
59435;BME280;45241;49.768;8.636;2023-02-15T01:26:59;101692.13;;;1.89;100.00
59435;BME280;45241;49.768;8.636;2023-02-15T01:29:24;101688.91;;;1.84;100.00
59435;BME280;45241;49.768;8.636;2023-02-15T01:31:50;101688.28;;;1.80;100.00
59435;BME280;45241;49.768;8.636;2023-02-15T01:34:15;101689.28;;;1.92;100.00
59435;BME280;45241;49.768;8.636;2023-02-15T01:36:40;101683.34;;;2.01;100.00
59435;BME280;45241;49.768;8.636;2023-02-15T01:39:06;101685.69;;;2.33;100.00
59435;BME280;45241;49.768;8.636;2023-02-15T01:41:32;101683.84;;;1.81;100.00
59435;BME280;45241;49.768;8.636;2023-02-15T01:44:00;101676.66;;;1.83;100.00
59435;BME280;45241;49.768;8.636;2023-02-15T01:46:38;101679.75;;;1.62;100.00
59435;BME280;45241;49.768;8.636;2023-02-15T01:49:10;101681.22;;;2.20;100.00
59435;BME280;45241;49.768;8.636;2023-02-15T01:51:37;101667.72;;;2.76;100.00
59435;BME280;45241;49.768;8.636;2023-02-15T01:56:37;101672.81;;;2.14;100.00
59435;BME280;45241;49.768;8.636;2023-02-15T01:59:07;101669.31;;;2.40;100.00
59435;BME280;45241;49.768;8.636;2023-02-15T02:01:34;101664.00;;;2.53;100.00
59435;BME280;45241;49.768;8.636;2023-02-15T02:04:10;101669.22;;;2.93;100.00
59435;BME280;45241;49.768;8.636;2023-02-15T02:06:39;101676.38;;;3.03;100.00
59435;BME280;45241;49.768;8.636;2023-02-15T02:09:05;101674.16;;;2.34;100.00
59435;BME280;45241;49.768;8.636;2023-02-15T02:11:31;101667.94;;;2.85;100.00
59435;BME280;45241;49.768;8.636;2023-02-15T02:13:57;101678.00;;;3.06;98.70
59435;BME280;45241;49.768;8.636;2023-02-15T02:19:47;101665.38;;;2.84;100.00
59435;BME280;45241;49.768;8.636;2023-02-15T02:33:53;101647.25;;;2.78;100.00
59435;BME280;45241;49.768;8.636;2023-02-15T02:36:40;101650.84;;;2.90;100.00
59435;BME280;45241;49.768;8.636;2023-02-15T02:39:42;101648.09;;;3.04;100.00
59435;BME280;45241;49.768;8.636;2023-02-15T02:42:28;101646.41;;;3.03;100.00
59435;BME280;45241;49.768;8.636;2023-02-15T02:45:04;101646.28;;;3.04;100.00
59435;BME280;45241;49.768;8.636;2023-02-15T02:47:35;101638.53;;;3.14;100.00
59435;BME280;45241;49.768;8.636;2023-02-15T02:50:05;101638.03;;;2.20;100.00
59435;BME280;45241;49.768;8.636;2023-02-15T02:52:41;101641.97;;;2.52;100.00
59435;BME280;45241;49.768;8.636;2023-02-15T02:55:11;101633.28;;;2.76;100.00
59435;BME280;45241;49.768;8.636;2023-02-15T03:00:30;101634.34;;;2.48;100.00
59435;BME280;45241;49.768;8.636;2023-02-15T03:03:01;101637.09;;;2.97;100.00
59435;BME280;45241;49.768;8.636;2023-02-15T03:05:32;101633.97;;;3.16;100.00
59435;BME280;45241;49.768;8.636;2023-02-15T03:08:01;101630.34;;;3.17;100.00
59435;BME280;45241;49.768;8.636;2023-02-15T03:10:32;101627.00;;;3.02;100.00
59435;BME280;45241;49.768;8.636;2023-02-15T03:12:59;101620.03;;;2.25;100.00
59435;BME280;45241;49.768;8.636;2023-02-15T03:15:37;101623.44;;;2.65;100.00
59435;BME280;45241;49.768;8.636;2023-02-15T03:18:29;101627.44;;;3.09;100.00
59435;BME280;45241;49.768;8.636;2023-02-15T03:20:56;101622.16;;;2.83;100.00
59435;BME280;45241;49.768;8.636;2023-02-15T03:23:25;101631.47;;;1.86;100.00
59435;BME280;45241;49.768;8.636;2023-02-15T03:25:57;101633.41;;;2.49;100.00
59435;BME280;45241;49.768;8.636;2023-02-15T03:28:33;101636.38;;;2.82;100.00
59435;BME280;45241;49.768;8.636;2023-02-15T03:31:03;101632.31;;;3.02;100.00
59435;BME280;45241;49.768;8.636;2023-02-15T03:33:30;101631.19;;;2.81;100.00
59435;BME280;45241;49.768;8.636;2023-02-15T03:39:32;101642.25;;;3.11;100.00
59435;BME280;45241;49.768;8.636;2023-02-15T03:42:44;101636.50;;;3.17;100.00
59435;BME280;45241;49.768;8.636;2023-02-15T03:45:13;101630.53;;;2.39;100.00
59435;BME280;45241;49.768;8.636;2023-02-15T03:47:46;101626.09;;;2.52;100.00
59435;BME280;45241;49.768;8.636;2023-02-15T03:50:26;101622.69;;;2.88;100.00
59435;BME280;45241;49.768;8.636;2023-02-15T03:53:14;101632.16;;;2.54;100.00
59435;BME280;45241;49.768;8.636;2023-02-15T03:55:40;101632.97;;;2.93;100.00
59435;BME280;45241;49.768;8.636;2023-02-15T03:58:05;101626.88;;;3.16;100.00
59435;BME280;45241;49.768;8.636;2023-02-15T04:01:03;101629.06;;;2.48;100.00
59435;BME280;45241;49.768;8.636;2023-02-15T04:03:57;101632.00;;;2.94;100.00
59435;BME280;45241;49.768;8.636;2023-02-15T04:06:24;101629.22;;;3.08;100.00
59435;BME280;45241;49.768;8.636;2023-02-15T04:08:49;101630.13;;;3.33;100.00
59435;BME280;45241;49.768;8.636;2023-02-15T04:11:33;101619.41;;;2.85;100.00
59435;BME280;45241;49.768;8.636;2023-02-15T04:13:59;101606.69;;;2.90;100.00
59435;BME280;45241;49.768;8.636;2023-02-15T04:16:44;101613.50;;;2.81;100.00
59435;BME280;45241;49.768;8.636;2023-02-15T04:19:09;101610.13;;;3.16;100.00
59435;BME280;45241;49.768;8.636;2023-02-15T04:21:53;101606.22;;;3.09;100.00
59435;BME280;45241;49.768;8.636;2023-02-15T04:24:37;101608.13;;;3.20;100.00
59435;BME280;45241;49.768;8.636;2023-02-15T04:27:21;101611.38;;;3.23;100.00
59435;BME280;45241;49.768;8.636;2023-02-15T04:29:46;101604.75;;;3.05;100.00
59435;BME280;45241;49.768;8.636;2023-02-15T04:32:11;101609.69;;;3.22;100.00
59435;BME280;45241;49.768;8.636;2023-02-15T04:34:36;101601.78;;;3.09;100.00
59435;BME280;45241;49.768;8.636;2023-02-15T04:37:02;101613.22;;;3.10;100.00
59435;BME280;45241;49.768;8.636;2023-02-15T04:39:27;101601.66;;;3.11;100.00
59435;BME280;45241;49.768;8.636;2023-02-15T04:41:52;101608.03;;;3.08;100.00
59435;BME280;45241;49.768;8.636;2023-02-15T04:44:18;101610.72;;;2.96;100.00
59435;BME280;45241;49.768;8.636;2023-02-15T04:46:43;101615.25;;;3.06;100.00
59435;BME280;45241;49.768;8.636;2023-02-15T04:49:09;101602.63;;;3.10;100.00
59435;BME280;45241;49.768;8.636;2023-02-15T04:51:34;101613.91;;;3.25;100.00
59435;BME280;45241;49.768;8.636;2023-02-15T04:53:59;101619.44;;;3.22;100.00
59435;BME280;45241;49.768;8.636;2023-02-15T04:56:25;101615.97;;;3.21;100.00
59435;BME280;45241;49.768;8.636;2023-02-15T04:58:50;101611.81;;;3.17;100.00
59435;BME280;45241;49.768;8.636;2023-02-15T05:01:17;101600.59;;;3.13;100.00
59435;BME280;45241;49.768;8.636;2023-02-15T05:03:42;101605.84;;;2.90;100.00
59435;BME280;45241;49.768;8.636;2023-02-15T05:06:07;101600.09;;;3.08;100.00
59435;BME280;45241;49.768;8.636;2023-02-15T05:08:33;101604.75;;;3.05;100.00
59435;BME280;45241;49.768;8.636;2023-02-15T05:10:58;101605.81;;;3.02;100.00
59435;BME280;45241;49.768;8.636;2023-02-15T05:13:24;101601.59;;;3.00;100.00
59435;BME280;45241;49.768;8.636;2023-02-15T05:15:50;101599.72;;;2.76;100.00
59435;BME280;45241;49.768;8.636;2023-02-15T05:18:17;101599.94;;;2.22;100.00
59435;BME280;45241;49.768;8.636;2023-02-15T05:20:42;101601.81;;;2.84;100.00
59435;BME280;45241;49.768;8.636;2023-02-15T05:23:08;101600.66;;;2.88;100.00
59435;BME280;45241;49.768;8.636;2023-02-15T05:25:33;101593.53;;;2.88;100.00
59435;BME280;45241;49.768;8.636;2023-02-15T05:28:17;101590.25;;;2.98;99.92
59435;BME280;45241;49.768;8.636;2023-02-15T05:30:47;101603.94;;;2.66;100.00
59435;BME280;45241;49.768;8.636;2023-02-15T05:33:12;101594.94;;;2.94;100.00
59435;BME280;45241;49.768;8.636;2023-02-15T05:35:38;101595.00;;;3.05;99.90
59435;BME280;45241;49.768;8.636;2023-02-15T05:38:03;101597.84;;;3.15;99.16
59435;BME280;45241;49.768;8.636;2023-02-15T05:40:28;101598.13;;;3.23;97.52
59435;BME280;45241;49.768;8.636;2023-02-15T05:42:54;101602.28;;;3.14;98.69
59435;BME280;45241;49.768;8.636;2023-02-15T05:45:20;101593.19;;;3.19;98.65
59435;BME280;45241;49.768;8.636;2023-02-15T05:47:46;101589.56;;;3.20;98.72
59435;BME280;45241;49.768;8.636;2023-02-15T05:50:11;101587.41;;;3.25;98.82
59435;BME280;45241;49.768;8.636;2023-02-15T05:52:37;101590.00;;;3.13;98.98
59435;BME280;45241;49.768;8.636;2023-02-15T05:55:03;101596.44;;;2.47;100.00
59435;BME280;45241;49.768;8.636;2023-02-15T05:57:29;101605.75;;;2.66;100.00
59435;BME280;45241;49.768;8.636;2023-02-15T05:59:54;101605.00;;;3.26;100.00
59435;BME280;45241;49.768;8.636;2023-02-15T06:02:20;101595.75;;;3.31;100.00
59435;BME280;45241;49.768;8.636;2023-02-15T06:04:45;101599.53;;;3.16;100.00
59435;BME280;45241;49.768;8.636;2023-02-15T06:07:10;101597.91;;;2.64;100.00
59435;BME280;45241;49.768;8.636;2023-02-15T06:09:35;101604.72;;;2.55;100.00
59435;BME280;45241;49.768;8.636;2023-02-15T06:12:01;101601.47;;;3.01;100.00
59435;BME280;45241;49.768;8.636;2023-02-15T06:14:26;101600.56;;;3.26;100.00
59435;BME280;45241;49.768;8.636;2023-02-15T06:16:51;101606.69;;;3.27;100.00
59435;BME280;45241;49.768;8.636;2023-02-15T06:19:17;101606.59;;;3.28;100.00
59435;BME280;45241;49.768;8.636;2023-02-15T06:21:42;101607.22;;;2.95;100.00
59435;BME280;45241;49.768;8.636;2023-02-15T06:24:10;101607.47;;;3.16;100.00
59435;BME280;45241;49.768;8.636;2023-02-15T06:26:36;101613.88;;;3.37;100.00
59435;BME280;45241;49.768;8.636;2023-02-15T06:29:01;101610.03;;;3.41;100.00
59435;BME280;45241;49.768;8.636;2023-02-15T06:31:27;101613.16;;;3.35;100.00
59435;BME280;45241;49.768;8.636;2023-02-15T06:33:52;101615.16;;;3.44;99.94
59435;BME280;45241;49.768;8.636;2023-02-15T06:36:18;101616.03;;;3.32;100.00
59435;BME280;45241;49.768;8.636;2023-02-15T06:38:43;101619.41;;;3.34;100.00
59435;BME280;45241;49.768;8.636;2023-02-15T06:41:08;101620.44;;;3.44;100.00
59435;BME280;45241;49.768;8.636;2023-02-15T06:43:33;101629.78;;;3.37;100.00
59435;BME280;45241;49.768;8.636;2023-02-15T06:45:59;101632.44;;;2.75;100.00
59435;BME280;45241;49.768;8.636;2023-02-15T06:48:25;101630.06;;;3.09;100.00
59435;BME280;45241;49.768;8.636;2023-02-15T06:50:50;101633.69;;;3.08;100.00
59435;BME280;45241;49.768;8.636;2023-02-15T06:53:15;101631.53;;;3.13;100.00
59435;BME280;45241;49.768;8.636;2023-02-15T06:55:41;101638.06;;;2.83;100.00
59435;BME280;45241;49.768;8.636;2023-02-15T06:58:06;101638.25;;;3.06;100.00
59435;BME280;45241;49.768;8.636;2023-02-15T07:00:31;101647.84;;;3.32;100.00
59435;BME280;45241;49.768;8.636;2023-02-15T07:02:58;101652.56;;;2.52;100.00
59435;BME280;45241;49.768;8.636;2023-02-15T07:05:26;101649.72;;;2.94;100.00
59435;BME280;45241;49.768;8.636;2023-02-15T07:07:56;101648.94;;;3.04;100.00
59435;BME280;45241;49.768;8.636;2023-02-15T07:10:22;101649.59;;;3.08;100.00
59435;BME280;45241;49.768;8.636;2023-02-15T07:12:47;101649.13;;;3.14;100.00
59435;BME280;45241;49.768;8.636;2023-02-15T07:15:15;101644.03;;;3.24;100.00
59435;BME280;45241;49.768;8.636;2023-02-15T07:17:40;101641.16;;;3.27;100.00
59435;BME280;45241;49.768;8.636;2023-02-15T07:20:14;101634.41;;;3.10;100.00
59435;BME280;45241;49.768;8.636;2023-02-15T07:22:40;101634.28;;;3.24;100.00
59435;BME280;45241;49.768;8.636;2023-02-15T07:25:08;101633.44;;;3.24;100.00
59435;BME280;45241;49.768;8.636;2023-02-15T07:27:34;101625.31;;;3.01;100.00
59435;BME280;45241;49.768;8.636;2023-02-15T07:30:00;101632.34;;;3.26;100.00
59435;BME280;45241;49.768;8.636;2023-02-15T07:32:30;101629.16;;;3.34;100.00
59435;BME280;45241;49.768;8.636;2023-02-15T07:34:55;101628.81;;;3.38;100.00
59435;BME280;45241;49.768;8.636;2023-02-15T07:37:21;101631.47;;;3.38;100.00
59435;BME280;45241;49.768;8.636;2023-02-15T07:39:46;101626.88;;;3.53;100.00
59435;BME280;45241;49.768;8.636;2023-02-15T07:42:11;101629.19;;;3.21;100.00
59435;BME280;45241;49.768;8.636;2023-02-15T07:44:36;101630.91;;;3.22;100.00
59435;BME280;45241;49.768;8.636;2023-02-15T07:47:02;101627.16;;;2.63;100.00
59435;BME280;45241;49.768;8.636;2023-02-15T07:49:27;101623.09;;;3.08;100.00
59435;BME280;45241;49.768;8.636;2023-02-15T07:51:53;101623.81;;;3.10;100.00
59435;BME280;45241;49.768;8.636;2023-02-15T07:54:18;101620.16;;;3.36;100.00
59435;BME280;45241;49.768;8.636;2023-02-15T07:56:43;101619.28;;;2.99;100.00
59435;BME280;45241;49.768;8.636;2023-02-15T07:59:09;101613.75;;;3.02;100.00
59435;BME280;45241;49.768;8.636;2023-02-15T08:01:36;101614.31;;;3.31;100.00
59435;BME280;45241;49.768;8.636;2023-02-15T08:04:02;101621.59;;;3.04;100.00
59435;BME280;45241;49.768;8.636;2023-02-15T08:06:31;101623.28;;;3.05;100.00
59435;BME280;45241;49.768;8.636;2023-02-15T08:08:56;101624.28;;;2.78;100.00
59435;BME280;45241;49.768;8.636;2023-02-15T08:11:35;101623.09;;;3.08;100.00
59435;BME280;45241;49.768;8.636;2023-02-15T08:14:05;101631.28;;;3.29;100.00
59435;BME280;45241;49.768;8.636;2023-02-15T08:19:08;101622.28;;;3.55;100.00
59435;BME280;45241;49.768;8.636;2023-02-15T08:21:36;101623.00;;;2.97;100.00
59435;BME280;45241;49.768;8.636;2023-02-15T08:24:02;101620.00;;;3.14;100.00
59435;BME280;45241;49.768;8.636;2023-02-15T08:26:28;101612.88;;;3.14;100.00
59435;BME280;45241;49.768;8.636;2023-02-15T08:28:55;101616.78;;;2.72;100.00
59435;BME280;45241;49.768;8.636;2023-02-15T08:31:20;101616.13;;;2.81;100.00
59435;BME280;45241;49.768;8.636;2023-02-15T08:33:47;101612.25;;;3.11;100.00
59435;BME280;45241;49.768;8.636;2023-02-15T08:36:15;101608.72;;;3.23;100.00
59435;BME280;45241;49.768;8.636;2023-02-15T08:38:41;101607.53;;;3.27;100.00
59435;BME280;45241;49.768;8.636;2023-02-15T08:41:10;101600.41;;;3.04;100.00
59435;BME280;45241;49.768;8.636;2023-02-15T08:43:36;101607.78;;;3.24;100.00
59435;BME280;45241;49.768;8.636;2023-02-15T08:46:02;101607.28;;;3.19;100.00
59435;BME280;45241;49.768;8.636;2023-02-15T08:48:27;101603.56;;;3.45;100.00
59435;BME280;45241;49.768;8.636;2023-02-15T08:50:52;101599.38;;;3.54;100.00
59435;BME280;45241;49.768;8.636;2023-02-15T08:53:17;101595.69;;;3.33;100.00
59435;BME280;45241;49.768;8.636;2023-02-15T08:55:46;101592.09;;;3.21;100.00
59435;BME280;45241;49.768;8.636;2023-02-15T08:58:12;101586.56;;;3.24;100.00
59435;BME280;45241;49.768;8.636;2023-02-15T09:00:37;101578.56;;;3.13;100.00
59435;BME280;45241;49.768;8.636;2023-02-15T09:03:03;101577.28;;;2.44;100.00
59435;BME280;45241;49.768;8.636;2023-02-15T09:05:28;101576.34;;;3.07;100.00
59435;BME280;45241;49.768;8.636;2023-02-15T09:07:53;101577.75;;;3.00;100.00
59435;BME280;45241;49.768;8.636;2023-02-15T09:10:19;101582.06;;;3.01;100.00
59435;BME280;45241;49.768;8.636;2023-02-15T09:12:45;101584.00;;;2.99;100.00
59435;BME280;45241;49.768;8.636;2023-02-15T09:15:10;101575.00;;;3.25;100.00
59435;BME280;45241;49.768;8.636;2023-02-15T09:17:36;101571.06;;;3.55;100.00
59435;BME280;45241;49.768;8.636;2023-02-15T09:20:01;101573.22;;;3.50;100.00
59435;BME280;45241;49.768;8.636;2023-02-15T09:22:26;101569.00;;;3.71;100.00
59435;BME280;45241;49.768;8.636;2023-02-15T09:24:52;101566.22;;;3.72;100.00
59435;BME280;45241;49.768;8.636;2023-02-15T09:27:17;101566.09;;;3.74;100.00
59435;BME280;45241;49.768;8.636;2023-02-15T09:29:43;101565.13;;;3.75;100.00
59435;BME280;45241;49.768;8.636;2023-02-15T09:32:08;101567.00;;;3.62;100.00
59435;BME280;45241;49.768;8.636;2023-02-15T09:34:33;101566.13;;;3.50;100.00
59435;BME280;45241;49.768;8.636;2023-02-15T09:36:59;101563.69;;;3.47;100.00
59435;BME280;45241;49.768;8.636;2023-02-15T09:39:25;101557.06;;;3.76;100.00
59435;BME280;45241;49.768;8.636;2023-02-15T09:45:32;101552.69;;;3.99;100.00
59435;BME280;45241;49.768;8.636;2023-02-15T09:48:33;101547.19;;;3.79;100.00
59435;BME280;45241;49.768;8.636;2023-02-15T09:51:23;101563.22;;;3.77;100.00
59435;BME280;45241;49.768;8.636;2023-02-15T09:56:53;101559.34;;;3.46;100.00
59435;BME280;45241;49.768;8.636;2023-02-15T10:05:24;101573.66;;;3.43;100.00
59435;BME280;45241;49.768;8.636;2023-02-15T10:11:10;101576.13;;;3.10;100.00
59435;BME280;45241;49.768;8.636;2023-02-15T10:22:47;101589.69;;;3.42;100.00
59435;BME280;45241;49.768;8.636;2023-02-15T10:25:50;101599.28;;;3.32;100.00
59435;BME280;45241;49.768;8.636;2023-02-15T10:28:39;101593.06;;;3.20;100.00
59435;BME280;45241;49.768;8.636;2023-02-15T10:33:40;101588.28;;;3.73;100.00
59435;BME280;45241;49.768;8.636;2023-02-15T10:41:36;101586.91;;;3.91;100.00
59435;BME280;45241;49.768;8.636;2023-02-15T10:44:07;101581.97;;;3.63;100.00
59435;BME280;45241;49.768;8.636;2023-02-15T10:46:55;101593.53;;;3.62;100.00
59435;BME280;45241;49.768;8.636;2023-02-15T10:49:51;101589.28;;;3.35;100.00
59435;BME280;45241;49.768;8.636;2023-02-15T10:52:42;101584.44;;;3.53;100.00
59435;BME280;45241;49.768;8.636;2023-02-15T10:55:18;101579.84;;;3.31;100.00
59435;BME280;45241;49.768;8.636;2023-02-15T10:57:58;101578.94;;;3.32;100.00
59435;BME280;45241;49.768;8.636;2023-02-15T11:00:37;101580.16;;;3.39;100.00
59435;BME280;45241;49.768;8.636;2023-02-15T11:06:08;101573.94;;;3.52;100.00
59435;BME280;45241;49.768;8.636;2023-02-15T11:08:39;101569.78;;;3.36;100.00
59435;BME280;45241;49.768;8.636;2023-02-15T11:11:12;101569.59;;;3.74;100.00
59435;BME280;45241;49.768;8.636;2023-02-15T11:13:45;101571.81;;;3.92;100.00
59435;BME280;45241;49.768;8.636;2023-02-15T11:16:21;101567.84;;;3.62;100.00
59435;BME280;45241;49.768;8.636;2023-02-15T11:19:08;101560.41;;;3.43;100.00
59435;BME280;45241;49.768;8.636;2023-02-15T11:21:39;101559.56;;;3.43;100.00
59435;BME280;45241;49.768;8.636;2023-02-15T11:24:13;101549.91;;;3.66;100.00
59435;BME280;45241;49.768;8.636;2023-02-15T11:26:54;101540.16;;;3.42;100.00
59435;BME280;45241;49.768;8.636;2023-02-15T11:35:18;101526.84;;;3.90;100.00
59435;BME280;45241;49.768;8.636;2023-02-15T11:40:25;101523.03;;;4.17;100.00
59435;BME280;45241;49.768;8.636;2023-02-15T11:42:53;101515.47;;;3.77;100.00
59435;BME280;45241;49.768;8.636;2023-02-15T11:45:31;101523.09;;;3.46;100.00
59435;BME280;45241;49.768;8.636;2023-02-15T11:47:58;101523.75;;;3.61;100.00
59435;BME280;45241;49.768;8.636;2023-02-15T11:50:29;101524.81;;;3.59;100.00
59435;BME280;45241;49.768;8.636;2023-02-15T11:53:02;101518.59;;;3.82;100.00
59435;BME280;45241;49.768;8.636;2023-02-15T11:55:29;101525.44;;;4.20;100.00
59435;BME280;45241;49.768;8.636;2023-02-15T11:58:01;101521.66;;;3.89;100.00
59435;BME280;45241;49.768;8.636;2023-02-15T12:00:40;101511.31;;;3.97;100.00
59435;BME280;45241;49.768;8.636;2023-02-15T12:03:57;101513.28;;;3.82;100.00
59435;BME280;45241;49.768;8.636;2023-02-15T12:06:01;101515.00;;;3.83;100.00
59435;BME280;45241;49.768;8.636;2023-02-15T12:08:37;101515.06;;;3.59;100.00
59435;BME280;45241;49.768;8.636;2023-02-15T12:11:09;101512.00;;;3.88;100.00
59435;BME280;45241;49.768;8.636;2023-02-15T12:13:54;101510.47;;;4.07;100.00
59435;BME280;45241;49.768;8.636;2023-02-15T12:16:19;101502.69;;;3.82;100.00
59435;BME280;45241;49.768;8.636;2023-02-15T12:18:46;101499.75;;;4.20;100.00
59435;BME280;45241;49.768;8.636;2023-02-15T12:21:24;101493.34;;;4.45;100.00
59435;BME280;45241;49.768;8.636;2023-02-15T12:23:54;101489.47;;;4.60;100.00
59435;BME280;45241;49.768;8.636;2023-02-15T12:26:23;101490.22;;;4.18;100.00
59435;BME280;45241;49.768;8.636;2023-02-15T12:28:50;101486.00;;;4.49;100.00
59435;BME280;45241;49.768;8.636;2023-02-15T12:31:23;101481.53;;;4.27;100.00
59435;BME280;45241;49.768;8.636;2023-02-15T12:33:52;101482.22;;;4.06;100.00
59435;BME280;45241;49.768;8.636;2023-02-15T12:36:20;101475.97;;;4.30;100.00
59435;BME280;45241;49.768;8.636;2023-02-15T12:41:45;101473.56;;;4.49;100.00
59435;BME280;45241;49.768;8.636;2023-02-15T12:44:17;101473.69;;;4.14;100.00
59435;BME280;45241;49.768;8.636;2023-02-15T12:47:18;101475.50;;;4.47;100.00
59435;BME280;45241;49.768;8.636;2023-02-15T12:49:45;101465.59;;;4.16;100.00
59435;BME280;45241;49.768;8.636;2023-02-15T12:52:28;101467.75;;;4.78;100.00
59435;BME280;45241;49.768;8.636;2023-02-15T12:54:54;101462.59;;;4.31;100.00
59435;BME280;45241;49.768;8.636;2023-02-15T12:57:32;101463.56;;;4.30;100.00
59435;BME280;45241;49.768;8.636;2023-02-15T13:02:49;101462.59;;;4.31;100.00
59435;BME280;45241;49.768;8.636;2023-02-15T13:05:30;101452.94;;;4.19;100.00
59435;BME280;45241;49.768;8.636;2023-02-15T13:07:57;101439.78;;;3.84;100.00
59435;BME280;45241;49.768;8.636;2023-02-15T13:10:33;101442.94;;;4.23;100.00
59435;BME280;45241;49.768;8.636;2023-02-15T13:13:00;101441.94;;;4.57;100.00
59435;BME280;45241;49.768;8.636;2023-02-15T13:15:36;101439.22;;;4.80;100.00
59435;BME280;45241;49.768;8.636;2023-02-15T13:18:05;101433.28;;;4.11;100.00
59435;BME280;45241;49.768;8.636;2023-02-15T13:20:34;101430.63;;;4.11;100.00
59435;BME280;45241;49.768;8.636;2023-02-15T13:23:04;101423.00;;;4.51;100.00
59435;BME280;45241;49.768;8.636;2023-02-15T13:25:39;101416.75;;;4.84;100.00
59435;BME280;45241;49.768;8.636;2023-02-15T13:28:06;101425.09;;;4.25;100.00
59435;BME280;45241;49.768;8.636;2023-02-15T13:30:38;101420.03;;;4.11;100.00
59435;BME280;45241;49.768;8.636;2023-02-15T13:33:33;101415.66;;;4.21;100.00
59435;BME280;45241;49.768;8.636;2023-02-15T13:36:10;101413.53;;;4.69;100.00
59435;BME280;45241;49.768;8.636;2023-02-15T13:41:27;101401.22;;;5.00;100.00
59435;BME280;45241;49.768;8.636;2023-02-15T13:47:03;101408.66;;;4.31;100.00
59435;BME280;45241;49.768;8.636;2023-02-15T13:49:46;101397.16;;;4.96;100.00
59435;BME280;45241;49.768;8.636;2023-02-15T13:52:21;101396.00;;;5.10;100.00
59435;BME280;45241;49.768;8.636;2023-02-15T13:55:21;101391.16;;;5.15;99.58
59435;BME280;45241;49.768;8.636;2023-02-15T13:58:06;101389.16;;;4.96;99.94
59435;BME280;45241;49.768;8.636;2023-02-15T14:06:47;101388.56;;;4.60;100.00
59435;BME280;45241;49.768;8.636;2023-02-15T14:09:26;101383.41;;;4.91;100.00
59435;BME280;45241;49.768;8.636;2023-02-15T14:12:34;101370.25;;;5.10;100.00
59435;BME280;45241;49.768;8.636;2023-02-15T14:15:09;101372.09;;;5.31;99.44
59435;BME280;45241;49.768;8.636;2023-02-15T14:17:53;101368.25;;;5.23;98.61
59435;BME280;45241;49.768;8.636;2023-02-15T14:23:11;101381.16;;;5.49;98.02
59435;BME280;45241;49.768;8.636;2023-02-15T14:25:46;101383.19;;;5.36;98.86
59435;BME280;45241;49.768;8.636;2023-02-15T14:28:45;101385.44;;;4.55;100.00
59435;BME280;45241;49.768;8.636;2023-02-15T14:31:15;101373.88;;;4.88;100.00
59435;BME280;45241;49.768;8.636;2023-02-15T14:33:50;101373.09;;;4.98;99.86
59435;BME280;45241;49.768;8.636;2023-02-15T14:36:19;101368.28;;;4.59;100.00
59435;BME280;45241;49.768;8.636;2023-02-15T14:44:04;101384.41;;;4.79;100.00